TimeAKST,TemperatureF,Dew PointF,Humidity,Sea Level PressureIn,VisibilityMPH,Wind Direction,Wind SpeedMPH,Gust SpeedMPH,PrecipitationIn,Events,Conditions,WindDirDegrees,DateUTC
12:53 AM,25.0,17.1,72,30.56,10.0,Calm,Calm,-,N/A,,Clear,0,2014-02-06 09:53:00
1:53 AM,24.1,18.0,77,30.56,10.0,Calm,Calm,-,N/A,,Clear,0,2014-02-06 10:53:00
3:53 AM,23.0,16.0,74,30.53,10.0,Calm,Calm,-,N/A,,Clear,0,2014-02-06 12:53:00
4:53 AM,21.9,17.1,82,30.50,10.0,Calm,Calm,-,N/A,,Clear,0,2014-02-06 13:53:00
5:53 AM,21.9,16.0,78,30.48,10.0,Calm,Calm,-,N/A,,Clear,0,2014-02-06 14:53:00
6:53 AM,23.0,17.1,78,30.45,10.0,Calm,Calm,-,N/A,,Clear,0,2014-02-06 15:53:00
7:53 AM,21.9,15.1,75,30.42,10.0,Calm,Calm,-,N/A,,Clear,0,2014-02-06 16:53:00
8:53 AM,21.9,15.1,75,30.40,10.0,Calm,Calm,-,N/A,,Clear,0,2014-02-06 17:53:00
9:53 AM,21.9,16.0,78,30.37,10.0,Calm,Calm,-,N/A,,Clear,0,2014-02-06 18:53:00
10:53 AM,27.0,19.9,75,30.30,10.0,Calm,Calm,-,N/A,,Clear,0,2014-02-06 19:53:00
11:53 AM,32.0,23.0,69,30.27,10.0,SSE,3.5,-,N/A,,Clear,160,2014-02-06 20:53:00
12:53 PM,33.1,24.1,70,30.23,10.0,Calm,Calm,-,N/A,,Clear,0,2014-02-06 21:53:00
1:53 PM,33.1,24.1,70,30.14,10.0,NE,5.8,-,N/A,,Mostly Cloudy,50,2014-02-06 22:53:00
2:53 PM,33.1,24.1,70,30.05,10.0,North,3.5,-,N/A,,Mostly Cloudy,10,2014-02-06 23:53:00
3:53 PM,35.1,26.1,70,29.98,10.0,SSW,6.9,-,N/A,,Overcast,210,2014-02-07 00:53:00
4:53 PM,35.1,26.1,70,29.88,10.0,Variable,3.5,17.3,N/A,,Mostly Cloudy,0,2014-02-07 01:53:00
5:53 PM,34.0,26.1,73,29.82,10.0,NE,6.9,-,N/A,,Scattered Clouds,50,2014-02-07 02:53:00
6:53 PM,34.0,26.1,73,29.78,10.0,NE,4.6,-,N/A,,Mostly Cloudy,40,2014-02-07 03:53:00
7:53 PM,35.1,21.0,57,29.76,10.0,NE,12.7,20.7,0.00,,Overcast,50,2014-02-07 04:53:00
8:53 PM,33.1,12.0,42,29.75,9.0,NE,23.0,33.4,0.00,Snow,Light Snow,50,2014-02-07 05:53:00
9:53 PM,30.0,10.0,43,29.73,10.0,NE,15.0,27.6,0.00,,Clear,50,2014-02-07 06:53:00
10:53 PM,30.0,10.0,43,29.69,10.0,NNE,15.0,28.8,0.00,,Unknown,30,2014-02-07 07:53:00
11:53 PM,28.0,10.9,49,29.65,10.0,NNE,18.4,33.4,N/A,,Overcast,30,2014-02-07 08:53:00